sensor_id;sensor_type;location;lat;lon;timestamp;P1;durP1;ratioP1;P2;durP2;ratioP2
35977;SDS011;22056;0.000;0.000;2023-03-31T00:01:58;1.58;;;0.60;;
35977;SDS011;22056;0.000;0.000;2023-03-31T00:04:26;1.73;;;0.50;;
35977;SDS011;22056;0.000;0.000;2023-03-31T00:06:52;1.70;;;0.50;;
35977;SDS011;22056;0.000;0.000;2023-03-31T00:09:18;1.20;;;0.60;;
35977;SDS011;22056;0.000;0.000;2023-03-31T00:11:49;1.95;;;0.70;;
35977;SDS011;22056;0.000;0.000;2023-03-31T00:14:15;1.50;;;0.65;;
35977;SDS011;22056;0.000;0.000;2023-03-31T00:16:42;1.30;;;0.47;;
35977;SDS011;22056;0.000;0.000;2023-03-31T00:19:08;2.85;;;0.70;;
35977;SDS011;22056;0.000;0.000;2023-03-31T00:21:42;0.95;;;0.40;;
35977;SDS011;22056;0.000;0.000;2023-03-31T00:24:08;1.88;;;0.63;;
35977;SDS011;22056;0.000;0.000;2023-03-31T00:26:35;1.88;;;0.57;;
35977;SDS011;22056;0.000;0.000;2023-03-31T00:29:02;1.35;;;0.60;;
35977;SDS011;22056;0.000;0.000;2023-03-31T00:31:29;2.80;;;0.50;;
35977;SDS011;22056;0.000;0.000;2023-03-31T00:33:55;1.55;;;0.50;;
35977;SDS011;22056;0.000;0.000;2023-03-31T00:36:21;2.17;;;0.63;;
35977;SDS011;22056;0.000;0.000;2023-03-31T00:39:02;2.80;;;0.57;;
35977;SDS011;22056;0.000;0.000;2023-03-31T00:41:31;1.08;;;0.60;;
35977;SDS011;22056;0.000;0.000;2023-03-31T00:46:37;1.23;;;0.38;;
35977;SDS011;22056;0.000;0.000;2023-03-31T00:49:05;3.00;;;0.50;;
35977;SDS011;22056;0.000;0.000;2023-03-31T00:51:36;1.00;;;0.40;;
35977;SDS011;22056;0.000;0.000;2023-03-31T00:54:03;1.25;;;0.57;;
35977;SDS011;22056;0.000;0.000;2023-03-31T00:56:31;1.63;;;0.50;;
35977;SDS011;22056;0.000;0.000;2023-03-31T00:59:00;1.45;;;0.50;;
35977;SDS011;22056;0.000;0.000;2023-03-31T01:01:27;1.13;;;0.45;;
35977;SDS011;22056;0.000;0.000;2023-03-31T01:03:54;0.98;;;0.60;;
35977;SDS011;22056;0.000;0.000;2023-03-31T01:06:21;1.42;;;0.60;;
35977;SDS011;22056;0.000;0.000;2023-03-31T01:08:48;1.13;;;0.50;;
35977;SDS011;22056;0.000;0.000;2023-03-31T01:11:15;1.77;;;0.50;;
35977;SDS011;22056;0.000;0.000;2023-03-31T01:13:43;2.38;;;0.52;;
35977;SDS011;22056;0.000;0.000;2023-03-31T01:16:10;0.85;;;0.40;;
35977;SDS011;22056;0.000;0.000;2023-03-31T01:18:36;0.70;;;0.50;;
35977;SDS011;22056;0.000;0.000;2023-03-31T01:31:38;1.20;;;0.40;;
35977;SDS011;22056;0.000;0.000;2023-03-31T01:44:53;0.73;;;0.35;;
35977;SDS011;22056;0.000;0.000;2023-03-31T01:47:24;0.70;;;0.30;;
35977;SDS011;22056;0.000;0.000;2023-03-31T01:49:57;0.68;;;0.30;;
35977;SDS011;22056;0.000;0.000;2023-03-31T01:52:35;1.08;;;0.30;;
35977;SDS011;22056;0.000;0.000;2023-03-31T01:55:04;0.82;;;0.32;;
35977;SDS011;22056;0.000;0.000;2023-03-31T02:00:16;1.08;;;0.40;;
35977;SDS011;22056;0.000;0.000;2023-03-31T02:02:46;1.25;;;0.50;;
35977;SDS011;22056;0.000;0.000;2023-03-31T02:05:18;1.05;;;0.35;;
35977;SDS011;22056;0.000;0.000;2023-03-31T02:07:46;0.57;;;0.35;;
35977;SDS011;22056;0.000;0.000;2023-03-31T02:10:14;0.80;;;0.30;;
35977;SDS011;22056;0.000;0.000;2023-03-31T02:12:42;1.40;;;0.28;;
35977;SDS011;22056;0.000;0.000;2023-03-31T02:15:13;0.73;;;0.35;;
35977;SDS011;22056;0.000;0.000;2023-03-31T02:17:42;1.00;;;0.40;;
35977;SDS011;22056;0.000;0.000;2023-03-31T02:20:10;0.70;;;0.40;;
35977;SDS011;22056;0.000;0.000;2023-03-31T02:22:38;1.23;;;0.35;;
35977;SDS011;22056;0.000;0.000;2023-03-31T02:25:05;1.95;;;0.50;;
35977;SDS011;22056;0.000;0.000;2023-03-31T02:27:39;0.52;;;0.35;;
35977;SDS011;22056;0.000;0.000;2023-03-31T02:30:07;1.63;;;0.40;;
35977;SDS011;22056;0.000;0.000;2023-03-31T02:32:37;1.60;;;0.43;;
35977;SDS011;22056;0.000;0.000;2023-03-31T02:35:05;0.40;;;0.40;;
35977;SDS011;22056;0.000;0.000;2023-03-31T02:37:32;0.85;;;0.30;;
35977;SDS011;22056;0.000;0.000;2023-03-31T02:40:00;0.68;;;0.40;;
35977;SDS011;22056;0.000;0.000;2023-03-31T02:42:29;0.57;;;0.40;;
35977;SDS011;22056;0.000;0.000;2023-03-31T02:45:00;0.93;;;0.35;;
35977;SDS011;22056;0.000;0.000;2023-03-31T02:47:27;0.85;;;0.40;;
35977;SDS011;22056;0.000;0.000;2023-03-31T02:49:55;0.60;;;0.20;;
35977;SDS011;22056;0.000;0.000;2023-03-31T02:52:37;2.08;;;0.50;;
35977;SDS011;22056;0.000;0.000;2023-03-31T03:00:26;0.88;;;0.35;;
35977;SDS011;22056;0.000;0.000;2023-03-31T03:03:06;0.32;;;0.30;;
35977;SDS011;22056;0.000;0.000;2023-03-31T03:05:47;0.85;;;0.30;;
35977;SDS011;22056;0.000;0.000;2023-03-31T03:08:30;0.70;;;0.35;;
35977;SDS011;22056;0.000;0.000;2023-03-31T03:11:06;0.60;;;0.40;;
35977;SDS011;22056;0.000;0.000;2023-03-31T03:13:42;0.73;;;0.30;;
35977;SDS011;22056;0.000;0.000;2023-03-31T03:18:57;0.50;;;0.30;;
35977;SDS011;22056;0.000;0.000;2023-03-31T03:21:24;0.20;;;0.20;;
35977;SDS011;22056;0.000;0.000;2023-03-31T03:23:50;1.42;;;0.40;;
35977;SDS011;22056;0.000;0.000;2023-03-31T03:26:17;0.60;;;0.40;;
35977;SDS011;22056;0.000;0.000;2023-03-31T03:28:48;0.20;;;0.20;;
35977;SDS011;22056;0.000;0.000;2023-03-31T03:31:15;0.45;;;0.22;;
35977;SDS011;22056;0.000;0.000;2023-03-31T03:33:41;0.80;;;0.30;;
35977;SDS011;22056;0.000;0.000;2023-03-31T03:36:07;0.55;;;0.30;;
35977;SDS011;22056;0.000;0.000;2023-03-31T03:38:34;0.50;;;0.30;;
35977;SDS011;22056;0.000;0.000;2023-03-31T03:41:01;0.40;;;0.35;;
35977;SDS011;22056;0.000;0.000;2023-03-31T03:43:27;0.60;;;0.40;;
35977;SDS011;22056;0.000;0.000;2023-03-31T03:45:54;0.57;;;0.32;;
35977;SDS011;22056;0.000;0.000;2023-03-31T03:48:20;1.48;;;0.30;;
35977;SDS011;22056;0.000;0.000;2023-03-31T03:50:46;0.47;;;0.30;;
35977;SDS011;22056;0.000;0.000;2023-03-31T03:53:13;0.52;;;0.30;;
35977;SDS011;22056;0.000;0.000;2023-03-31T03:55:40;0.90;;;0.38;;
35977;SDS011;22056;0.000;0.000;2023-03-31T03:58:06;0.60;;;0.40;;
35977;SDS011;22056;0.000;0.000;2023-03-31T04:00:32;0.50;;;0.30;;
35977;SDS011;22056;0.000;0.000;2023-03-31T04:02:58;0.57;;;0.40;;
35977;SDS011;22056;0.000;0.000;2023-03-31T04:05:25;0.77;;;0.32;;
35977;SDS011;22056;0.000;0.000;2023-03-31T04:07:52;0.65;;;0.32;;
35977;SDS011;22056;0.000;0.000;2023-03-31T04:10:18;0.88;;;0.20;;
35977;SDS011;22056;0.000;0.000;2023-03-31T04:12:44;0.30;;;0.20;;
35977;SDS011;22056;0.000;0.000;2023-03-31T04:15:10;0.50;;;0.50;;
35977;SDS011;22056;0.000;0.000;2023-03-31T04:17:36;0.57;;;0.38;;
35977;SDS011;22056;0.000;0.000;2023-03-31T04:20:03;0.80;;;0.30;;
35977;SDS011;22056;0.000;0.000;2023-03-31T04:22:32;0.20;;;0.20;;
35977;SDS011;22056;0.000;0.000;2023-03-31T04:25:08;0.57;;;0.30;;
35977;SDS011;22056;0.000;0.000;2023-03-31T04:27:39;0.75;;;0.30;;
35977;SDS011;22056;0.000;0.000;2023-03-31T04:30:14;0.70;;;0.30;;
35977;SDS011;22056;0.000;0.000;2023-03-31T04:32:47;3.22;;;0.52;;
35977;SDS011;22056;0.000;0.000;2023-03-31T04:35:15;0.60;;;0.30;;
35977;SDS011;22056;0.000;0.000;2023-03-31T04:37:42;1.95;;;0.43;;
35977;SDS011;22056;0.000;0.000;2023-03-31T04:40:08;0.80;;;0.35;;
35977;SDS011;22056;0.000;0.000;2023-03-31T04:42:34;0.70;;;0.30;;
35977;SDS011;22056;0.000;0.000;2023-03-31T04:45:01;1.58;;;0.30;;
35977;SDS011;22056;0.000;0.000;2023-03-31T04:47:27;2.17;;;0.22;;
35977;SDS011;22056;0.000;0.000;2023-03-31T04:49:53;0.73;;;0.40;;
35977;SDS011;22056;0.000;0.000;2023-03-31T04:52:19;1.05;;;0.40;;
35977;SDS011;22056;0.000;0.000;2023-03-31T04:54:45;0.57;;;0.40;;
35977;SDS011;22056;0.000;0.000;2023-03-31T04:57:11;0.80;;;0.30;;
35977;SDS011;22056;0.000;0.000;2023-03-31T04:59:38;1.13;;;0.50;;
35977;SDS011;22056;0.000;0.000;2023-03-31T05:02:04;0.60;;;0.30;;
35977;SDS011;22056;0.000;0.000;2023-03-31T05:04:30;1.42;;;0.40;;
35977;SDS011;22056;0.000;0.000;2023-03-31T05:06:56;0.95;;;0.35;;
35977;SDS011;22056;0.000;0.000;2023-03-31T05:09:22;0.40;;;0.40;;
35977;SDS011;22056;0.000;0.000;2023-03-31T05:11:49;1.20;;;0.30;;
35977;SDS011;22056;0.000;0.000;2023-03-31T05:14:15;1.75;;;0.38;;
35977;SDS011;22056;0.000;0.000;2023-03-31T05:16:41;0.30;;;0.30;;
35977;SDS011;22056;0.000;0.000;2023-03-31T05:19:08;1.35;;;0.40;;
35977;SDS011;22056;0.000;0.000;2023-03-31T05:21:34;1.70;;;0.38;;
35977;SDS011;22056;0.000;0.000;2023-03-31T05:24:02;2.10;;;0.40;;
35977;SDS011;22056;0.000;0.000;2023-03-31T05:26:29;5.10;;;0.60;;
35977;SDS011;22056;0.000;0.000;2023-03-31T05:28:55;0.93;;;0.43;;
35977;SDS011;22056;0.000;0.000;2023-03-31T05:31:21;1.60;;;0.30;;
35977;SDS011;22056;0.000;0.000;2023-03-31T05:33:47;3.15;;;0.40;;
35977;SDS011;22056;0.000;0.000;2023-03-31T05:36:14;1.98;;;0.40;;
35977;SDS011;22056;0.000;0.000;2023-03-31T05:38:41;1.48;;;0.45;;
35977;SDS011;22056;0.000;0.000;2023-03-31T05:41:07;2.95;;;0.40;;
35977;SDS011;22056;0.000;0.000;2023-03-31T05:43:35;1.13;;;0.40;;
35977;SDS011;22056;0.000;0.000;2023-03-31T05:46:02;1.15;;;0.38;;
35977;SDS011;22056;0.000;0.000;2023-03-31T05:48:28;0.85;;;0.40;;
35977;SDS011;22056;0.000;0.000;2023-03-31T05:50:55;1.17;;;0.40;;
35977;SDS011;22056;0.000;0.000;2023-03-31T05:53:22;1.55;;;0.43;;
35977;SDS011;22056;0.000;0.000;2023-03-31T05:55:48;1.58;;;0.40;;
35977;SDS011;22056;0.000;0.000;2023-03-31T05:58:14;2.15;;;0.40;;
35977;SDS011;22056;0.000;0.000;2023-03-31T06:00:40;1.40;;;0.30;;
35977;SDS011;22056;0.000;0.000;2023-03-31T06:03:08;2.55;;;0.40;;
35977;SDS011;22056;0.000;0.000;2023-03-31T06:05:34;0.95;;;0.40;;
35977;SDS011;22056;0.000;0.000;2023-03-31T06:08:00;1.42;;;0.40;;
35977;SDS011;22056;0.000;0.000;2023-03-31T06:10:27;1.83;;;0.45;;
35977;SDS011;22056;0.000;0.000;2023-03-31T06:12:54;1.20;;;0.40;;
35977;SDS011;22056;0.000;0.000;2023-03-31T06:15:20;1.63;;;0.45;;
35977;SDS011;22056;0.000;0.000;2023-03-31T06:17:46;1.60;;;0.52;;
35977;SDS011;22056;0.000;0.000;2023-03-31T06:20:12;1.42;;;0.50;;
35977;SDS011;22056;0.000;0.000;2023-03-31T06:22:39;1.90;;;0.40;;
35977;SDS011;22056;0.000;0.000;2023-03-31T06:25:05;1.70;;;0.40;;
35977;SDS011;22056;0.000;0.000;2023-03-31T06:27:32;3.33;;;0.50;;
35977;SDS011;22056;0.000;0.000;2023-03-31T06:29:58;2.63;;;0.55;;
35977;SDS011;22056;0.000;0.000;2023-03-31T06:32:24;2.15;;;0.70;;
35977;SDS011;22056;0.000;0.000;2023-03-31T06:34:51;2.45;;;0.50;;
35977;SDS011;22056;0.000;0.000;2023-03-31T06:37:17;3.50;;;0.70;;
35977;SDS011;22056;0.000;0.000;2023-03-31T06:39:43;3.33;;;0.60;;
35977;SDS011;22056;0.000;0.000;2023-03-31T06:42:09;1.65;;;0.75;;
35977;SDS011;22056;0.000;0.000;2023-03-31T06:44:35;6.00;;;0.80;;
35977;SDS011;22056;0.000;0.000;2023-03-31T06:47:01;3.45;;;0.77;;
35977;SDS011;22056;0.000;0.000;2023-03-31T06:49:27;1.55;;;0.65;;
35977;SDS011;22056;0.000;0.000;2023-03-31T06:51:53;2.35;;;1.00;;
35977;SDS011;22056;0.000;0.000;2023-03-31T06:54:19;2.80;;;0.68;;
35977;SDS011;22056;0.000;0.000;2023-03-31T06:56:45;2.00;;;0.80;;
35977;SDS011;22056;0.000;0.000;2023-03-31T06:59:12;4.45;;;0.70;;
35977;SDS011;22056;0.000;0.000;2023-03-31T07:01:38;5.28;;;1.10;;
35977;SDS011;22056;0.000;0.000;2023-03-31T07:04:06;4.90;;;1.15;;
35977;SDS011;22056;0.000;0.000;2023-03-31T07:06:33;3.72;;;0.90;;
35977;SDS011;22056;0.000;0.000;2023-03-31T07:08:59;2.47;;;0.77;;
35977;SDS011;22056;0.000;0.000;2023-03-31T07:11:25;1.30;;;0.47;;
35977;SDS011;22056;0.000;0.000;2023-03-31T07:13:51;2.50;;;0.80;;
35977;SDS011;22056;0.000;0.000;2023-03-31T07:16:17;2.70;;;0.85;;
35977;SDS011;22056;0.000;0.000;2023-03-31T07:18:44;1.65;;;0.60;;
35977;SDS011;22056;0.000;0.000;2023-03-31T07:21:10;3.45;;;0.60;;
35977;SDS011;22056;0.000;0.000;2023-03-31T07:23:36;3.47;;;0.50;;
35977;SDS011;22056;0.000;0.000;2023-03-31T07:26:02;2.33;;;0.55;;
35977;SDS011;22056;0.000;0.000;2023-03-31T07:28:30;4.72;;;0.80;;
35977;SDS011;22056;0.000;0.000;2023-03-31T07:30:57;2.88;;;0.80;;
35977;SDS011;22056;0.000;0.000;2023-03-31T07:33:23;1.85;;;0.70;;
35977;SDS011;22056;0.000;0.000;2023-03-31T07:35:49;2.00;;;0.60;;
35977;SDS011;22056;0.000;0.000;2023-03-31T07:38:15;1.10;;;0.45;;
35977;SDS011;22056;0.000;0.000;2023-03-31T07:40:42;3.53;;;0.70;;
35977;SDS011;22056;0.000;0.000;2023-03-31T07:43:10;3.25;;;0.75;;
35977;SDS011;22056;0.000;0.000;2023-03-31T07:45:37;3.05;;;0.60;;
35977;SDS011;22056;0.000;0.000;2023-03-31T07:48:04;3.72;;;0.60;;
35977;SDS011;22056;0.000;0.000;2023-03-31T07:50:30;2.33;;;0.75;;
35977;SDS011;22056;0.000;0.000;2023-03-31T07:52:56;2.88;;;0.80;;
35977;SDS011;22056;0.000;0.000;2023-03-31T07:55:24;2.75;;;0.70;;
35977;SDS011;22056;0.000;0.000;2023-03-31T07:57:51;3.97;;;0.80;;
35977;SDS011;22056;0.000;0.000;2023-03-31T08:00:17;4.32;;;1.00;;
35977;SDS011;22056;0.000;0.000;2023-03-31T08:02:43;3.72;;;0.90;;
35977;SDS011;22056;0.000;0.000;2023-03-31T08:05:10;6.22;;;0.93;;
35977;SDS011;22056;0.000;0.000;2023-03-31T08:07:38;4.43;;;1.02;;
35977;SDS011;22056;0.000;0.000;2023-03-31T08:10:06;4.47;;;1.13;;
35977;SDS011;22056;0.000;0.000;2023-03-31T08:12:33;3.72;;;0.93;;
35977;SDS011;22056;0.000;0.000;2023-03-31T08:14:59;2.55;;;0.73;;
35977;SDS011;22056;0.000;0.000;2023-03-31T08:17:25;4.60;;;1.17;;
35977;SDS011;22056;0.000;0.000;2023-03-31T08:19:51;3.55;;;0.82;;
35977;SDS011;22056;0.000;0.000;2023-03-31T08:22:17;3.08;;;0.82;;
35977;SDS011;22056;0.000;0.000;2023-03-31T08:24:44;3.65;;;0.70;;
35977;SDS011;22056;0.000;0.000;2023-03-31T08:27:10;3.60;;;1.17;;
35977;SDS011;22056;0.000;0.000;2023-03-31T08:29:36;1.92;;;0.70;;
35977;SDS011;22056;0.000;0.000;2023-03-31T08:32:02;5.57;;;0.95;;
35977;SDS011;22056;0.000;0.000;2023-03-31T08:34:28;6.13;;;0.95;;
35977;SDS011;22056;0.000;0.000;2023-03-31T08:36:54;2.22;;;0.75;;
35977;SDS011;22056;0.000;0.000;2023-03-31T08:39:21;3.25;;;0.75;;
35977;SDS011;22056;0.000;0.000;2023-03-31T08:41:52;3.53;;;1.00;;
35977;SDS011;22056;0.000;0.000;2023-03-31T08:46:46;3.05;;;0.75;;
35977;SDS011;22056;0.000;0.000;2023-03-31T08:49:14;4.03;;;0.70;;
35977;SDS011;22056;0.000;0.000;2023-03-31T08:51:43;2.15;;;0.68;;
35977;SDS011;22056;0.000;0.000;2023-03-31T08:54:18;3.65;;;0.77;;
35977;SDS011;22056;0.000;0.000;2023-03-31T08:56:46;4.75;;;0.85;;
35977;SDS011;22056;0.000;0.000;2023-03-31T08:59:33;2.70;;;0.50;;
35977;SDS011;22056;0.000;0.000;2023-03-31T09:07:09;2.63;;;0.60;;
35977;SDS011;22056;0.000;0.000;2023-03-31T09:12:12;3.47;;;0.80;;
35977;SDS011;22056;0.000;0.000;2023-03-31T09:14:43;2.50;;;0.85;;
35977;SDS011;22056;0.000;0.000;2023-03-31T09:17:25;3.28;;;0.98;;
35977;SDS011;22056;0.000;0.000;2023-03-31T09:22:32;2.30;;;0.73;;
35977;SDS011;22056;0.000;0.000;2023-03-31T09:25:09;2.88;;;0.60;;
35977;SDS011;22056;0.000;0.000;2023-03-31T09:27:36;5.10;;;0.80;;
35977;SDS011;22056;0.000;0.000;2023-03-31T09:30:21;6.10;;;1.17;;
35977;SDS011;22056;0.000;0.000;2023-03-31T09:33:12;2.90;;;0.80;;
35977;SDS011;22056;0.000;0.000;2023-03-31T09:35:36;2.25;;;0.80;;
35977;SDS011;22056;0.000;0.000;2023-03-31T09:38:02;6.35;;;1.00;;
35977;SDS011;22056;0.000;0.000;2023-03-31T09:40:29;4.10;;;0.77;;
35977;SDS011;22056;0.000;0.000;2023-03-31T09:43:03;4.00;;;0.90;;
35977;SDS011;22056;0.000;0.000;2023-03-31T09:45:29;4.03;;;0.80;;
35977;SDS011;22056;0.000;0.000;2023-03-31T09:47:59;4.55;;;0.90;;
35977;SDS011;22056;0.000;0.000;2023-03-31T09:50:26;3.40;;;0.80;;
35977;SDS011;22056;0.000;0.000;2023-03-31T09:52:54;3.45;;;0.82;;
35977;SDS011;22056;0.000;0.000;2023-03-31T09:57:47;5.97;;;1.42;;
35977;SDS011;22056;0.000;0.000;2023-03-31T10:00:15;4.20;;;0.90;;
35977;SDS011;22056;0.000;0.000;2023-03-31T10:02:54;3.70;;;0.82;;
35977;SDS011;22056;0.000;0.000;2023-03-31T10:05:26;2.83;;;0.70;;
35977;SDS011;22056;0.000;0.000;2023-03-31T10:10:30;4.20;;;0.70;;
35977;SDS011;22056;0.000;0.000;2023-03-31T10:12:58;3.60;;;0.85;;
35977;SDS011;22056;0.000;0.000;2023-03-31T10:15:26;4.88;;;1.20;;
35977;SDS011;22056;0.000;0.000;2023-03-31T10:17:52;2.05;;;0.60;;
35977;SDS011;22056;0.000;0.000;2023-03-31T10:20:22;4.53;;;0.80;;
35977;SDS011;22056;0.000;0.000;2023-03-31T10:22:52;4.20;;;1.25;;
35977;SDS011;22056;0.000;0.000;2023-03-31T10:25:22;2.53;;;1.10;;
35977;SDS011;22056;0.000;0.000;2023-03-31T10:27:52;3.08;;;0.93;;
35977;SDS011;22056;0.000;0.000;2023-03-31T10:30:21;2.35;;;0.70;;
35977;SDS011;22056;0.000;0.000;2023-03-31T10:32:48;3.58;;;0.70;;
35977;SDS011;22056;0.000;0.000;2023-03-31T10:37:47;1.75;;;0.70;;
35977;SDS011;22056;0.000;0.000;2023-03-31T10:40:15;3.17;;;1.00;;
35977;SDS011;22056;0.000;0.000;2023-03-31T10:42:44;4.25;;;1.00;;
35977;SDS011;22056;0.000;0.000;2023-03-31T10:47:55;4.53;;;0.73;;
35977;SDS011;22056;0.000;0.000;2023-03-31T10:50:26;4.87;;;1.00;;
35977;SDS011;22056;0.000;0.000;2023-03-31T10:52:52;1.70;;;0.63;;
35977;SDS011;22056;0.000;0.000;2023-03-31T10:55:27;1.98;;;0.98;;
35977;SDS011;22056;0.000;0.000;2023-03-31T10:57:57;4.03;;;0.80;;
35977;SDS011;22056;0.000;0.000;2023-03-31T11:12:59;2.75;;;0.93;;
35977;SDS011;22056;0.000;0.000;2023-03-31T11:23:31;3.78;;;0.70;;
35977;SDS011;22056;0.000;0.000;2023-03-31T11:26:04;2.45;;;0.70;;
35977;SDS011;22056;0.000;0.000;2023-03-31T11:31:26;6.28;;;1.20;;
35977;SDS011;22056;0.000;0.000;2023-03-31T11:38:58;1.42;;;0.50;;
35977;SDS011;22056;0.000;0.000;2023-03-31T11:41:35;5.28;;;0.90;;
35977;SDS011;22056;0.000;0.000;2023-03-31T11:44:08;3.33;;;1.05;;
35977;SDS011;22056;0.000;0.000;2023-03-31T11:46:55;2.63;;;0.68;;
35977;SDS011;22056;0.000;0.000;2023-03-31T11:49:27;3.47;;;1.00;;
35977;SDS011;22056;0.000;0.000;2023-03-31T11:54:35;2.85;;;0.82;;
35977;SDS011;22056;0.000;0.000;2023-03-31T11:57:06;3.42;;;0.70;;
35977;SDS011;22056;0.000;0.000;2023-03-31T11:59:34;1.35;;;0.70;;
35977;SDS011;22056;0.000;0.000;2023-03-31T12:18:02;3.58;;;0.60;;
35977;SDS011;22056;0.000;0.000;2023-03-31T12:20:31;5.97;;;0.80;;
35977;SDS011;22056;0.000;0.000;2023-03-31T12:22:59;4.28;;;0.80;;
35977;SDS011;22056;0.000;0.000;2023-03-31T12:25:28;2.20;;;0.75;;
35977;SDS011;22056;0.000;0.000;2023-03-31T12:27:57;4.25;;;0.90;;
35977;SDS011;22056;0.000;0.000;2023-03-31T12:30:27;7.20;;;1.15;;
35977;SDS011;22056;0.000;0.000;2023-03-31T12:32:57;2.85;;;0.80;;
35977;SDS011;22056;0.000;0.000;2023-03-31T12:35:28;6.30;;;1.10;;
35977;SDS011;22056;0.000;0.000;2023-03-31T12:45:38;3.15;;;0.80;;
35977;SDS011;22056;0.000;0.000;2023-03-31T12:50:55;2.25;;;0.88;;
35977;SDS011;22056;0.000;0.000;2023-03-31T12:53:34;5.40;;;1.13;;
35977;SDS011;22056;0.000;0.000;2023-03-31T12:56:04;4.15;;;1.02;;
35977;SDS011;22056;0.000;0.000;2023-03-31T13:08:54;5.45;;;1.15;;
35977;SDS011;22056;0.000;0.000;2023-03-31T13:13:59;4.13;;;0.98;;
35977;SDS011;22056;0.000;0.000;2023-03-31T13:16:26;8.98;;;1.27;;
35977;SDS011;22056;0.000;0.000;2023-03-31T13:18:53;2.92;;;0.88;;
35977;SDS011;22056;0.000;0.000;2023-03-31T13:21:20;4.45;;;0.90;;
35977;SDS011;22056;0.000;0.000;2023-03-31T13:23:46;6.70;;;0.90;;
35977;SDS011;22056;0.000;0.000;2023-03-31T13:26:46;6.82;;;0.90;;
35977;SDS011;22056;0.000;0.000;2023-03-31T13:29:09;7.05;;;1.20;;
35977;SDS011;22056;0.000;0.000;2023-03-31T13:34:21;5.78;;;1.00;;
35977;SDS011;22056;0.000;0.000;2023-03-31T13:39:29;5.20;;;1.02;;
35977;SDS011;22056;0.000;0.000;2023-03-31T13:50:07;4.55;;;0.88;;
35977;SDS011;22056;0.000;0.000;2023-03-31T13:52:41;5.65;;;0.90;;
35977;SDS011;22056;0.000;0.000;2023-03-31T14:03:03;4.80;;;1.10;;
35977;SDS011;22056;0.000;0.000;2023-03-31T14:05:38;4.00;;;1.05;;
35977;SDS011;22056;0.000;0.000;2023-03-31T14:08:16;5.97;;;1.65;;
35977;SDS011;22056;0.000;0.000;2023-03-31T14:10:44;4.60;;;1.02;;
35977;SDS011;22056;0.000;0.000;2023-03-31T14:13:12;3.15;;;1.08;;
35977;SDS011;22056;0.000;0.000;2023-03-31T14:16:11;5.85;;;1.10;;
35977;SDS011;22056;0.000;0.000;2023-03-31T14:18:34;4.22;;;1.02;;
35977;SDS011;22056;0.000;0.000;2023-03-31T14:21:11;2.60;;;1.00;;
35977;SDS011;22056;0.000;0.000;2023-03-31T14:31:44;4.05;;;1.15;;
35977;SDS011;22056;0.000;0.000;2023-03-31T14:36:59;7.20;;;0.95;;
35977;SDS011;22056;0.000;0.000;2023-03-31T14:39:30;4.50;;;1.00;;
35977;SDS011;22056;0.000;0.000;2023-03-31T14:41:58;4.82;;;1.05;;
35977;SDS011;22056;0.000;0.000;2023-03-31T14:44:25;4.85;;;1.00;;
35977;SDS011;22056;0.000;0.000;2023-03-31T14:46:51;4.78;;;0.80;;
35977;SDS011;22056;0.000;0.000;2023-03-31T14:49:27;2.63;;;0.80;;
35977;SDS011;22056;0.000;0.000;2023-03-31T14:51:59;6.18;;;1.00;;
35977;SDS011;22056;0.000;0.000;2023-03-31T14:54:25;5.13;;;0.85;;
35977;SDS011;22056;0.000;0.000;2023-03-31T14:56:53;5.22;;;1.17;;
35977;SDS011;22056;0.000;0.000;2023-03-31T14:59:21;6.05;;;1.13;;
35977;SDS011;22056;0.000;0.000;2023-03-31T15:01:49;7.38;;;1.35;;
35977;SDS011;22056;0.000;0.000;2023-03-31T15:04:16;4.68;;;0.90;;
35977;SDS011;22056;0.000;0.000;2023-03-31T15:06:44;3.88;;;1.00;;
35977;SDS011;22056;0.000;0.000;2023-03-31T15:09:15;3.67;;;1.05;;
35977;SDS011;22056;0.000;0.000;2023-03-31T15:11:42;4.55;;;0.95;;
35977;SDS011;22056;0.000;0.000;2023-03-31T15:14:08;4.05;;;0.82;;
35977;SDS011;22056;0.000;0.000;2023-03-31T15:16:42;6.00;;;1.00;;
35977;SDS011;22056;0.000;0.000;2023-03-31T15:21:44;4.65;;;1.30;;
35977;SDS011;22056;0.000;0.000;2023-03-31T15:24:11;3.90;;;0.82;;
35977;SDS011;22056;0.000;0.000;2023-03-31T15:26:43;4.93;;;1.10;;
35977;SDS011;22056;0.000;0.000;2023-03-31T15:29:55;4.78;;;1.00;;
35977;SDS011;22056;0.000;0.000;2023-03-31T15:31:56;3.95;;;0.90;;
35977;SDS011;22056;0.000;0.000;2023-03-31T15:34:28;5.95;;;0.80;;
35977;SDS011;22056;0.000;0.000;2023-03-31T15:36:57;6.75;;;1.10;;
35977;SDS011;22056;0.000;0.000;2023-03-31T15:39:24;3.80;;;1.15;;
35977;SDS011;22056;0.000;0.000;2023-03-31T15:41:51;6.93;;;0.95;;
35977;SDS011;22056;0.000;0.000;2023-03-31T15:44:37;3.70;;;0.80;;
35977;SDS011;22056;0.000;0.000;2023-03-31T15:47:11;4.47;;;0.73;;
35977;SDS011;22056;0.000;0.000;2023-03-31T15:49:46;5.00;;;0.80;;
35977;SDS011;22056;0.000;0.000;2023-03-31T15:52:47;5.32;;;1.00;;
35977;SDS011;22056;0.000;0.000;2023-03-31T15:55:24;2.92;;;0.70;;
35977;SDS011;22056;0.000;0.000;2023-03-31T15:57:52;4.57;;;1.10;;
35977;SDS011;22056;0.000;0.000;2023-03-31T16:02:56;3.00;;;0.70;;
35977;SDS011;22056;0.000;0.000;2023-03-31T16:05:46;7.57;;;0.90;;
35977;SDS011;22056;0.000;0.000;2023-03-31T16:08:15;5.38;;;1.10;;
35977;SDS011;22056;0.000;0.000;2023-03-31T16:10:42;3.30;;;1.05;;
35977;SDS011;22056;0.000;0.000;2023-03-31T16:13:09;4.47;;;0.77;;
35977;SDS011;22056;0.000;0.000;2023-03-31T16:15:39;4.60;;;0.95;;
35977;SDS011;22056;0.000;0.000;2023-03-31T16:18:49;2.28;;;0.80;;
35977;SDS011;22056;0.000;0.000;2023-03-31T16:20:56;1.95;;;0.70;;
35977;SDS011;22056;0.000;0.000;2023-03-31T16:23:24;4.43;;;0.70;;
35977;SDS011;22056;0.000;0.000;2023-03-31T16:25:51;3.75;;;0.75;;
35977;SDS011;22056;0.000;0.000;2023-03-31T16:28:18;2.55;;;0.70;;
35977;SDS011;22056;0.000;0.000;2023-03-31T16:30:46;3.00;;;0.77;;
35977;SDS011;22056;0.000;0.000;2023-03-31T16:33:13;2.80;;;0.65;;
35977;SDS011;22056;0.000;0.000;2023-03-31T16:35:44;4.30;;;1.15;;
35977;SDS011;22056;0.000;0.000;2023-03-31T16:38:13;2.38;;;0.77;;
35977;SDS011;22056;0.000;0.000;2023-03-31T16:40:41;2.92;;;0.85;;
35977;SDS011;22056;0.000;0.000;2023-03-31T16:43:21;3.72;;;0.68;;
35977;SDS011;22056;0.000;0.000;2023-03-31T16:45:58;4.10;;;0.88;;
35977;SDS011;22056;0.000;0.000;2023-03-31T16:48:25;2.92;;;0.60;;
35977;SDS011;22056;0.000;0.000;2023-03-31T16:50:52;2.40;;;0.70;;
35977;SDS011;22056;0.000;0.000;2023-03-31T16:53:22;5.25;;;0.90;;
35977;SDS011;22056;0.000;0.000;2023-03-31T16:55:48;4.97;;;0.90;;
35977;SDS011;22056;0.000;0.000;2023-03-31T16:58:15;6.22;;;0.90;;
35977;SDS011;22056;0.000;0.000;2023-03-31T17:00:42;4.38;;;0.90;;
35977;SDS011;22056;0.000;0.000;2023-03-31T17:03:09;7.95;;;0.95;;
35977;SDS011;22056;0.000;0.000;2023-03-31T17:05:39;3.10;;;0.65;;
35977;SDS011;22056;0.000;0.000;2023-03-31T17:08:06;4.00;;;0.90;;
35977;SDS011;22056;0.000;0.000;2023-03-31T17:10:32;3.55;;;0.70;;
35977;SDS011;22056;0.000;0.000;2023-03-31T17:12:59;3.10;;;0.60;;
35977;SDS011;22056;0.000;0.000;2023-03-31T17:15:25;3.10;;;0.85;;
35977;SDS011;22056;0.000;0.000;2023-03-31T17:17:54;1.98;;;0.73;;
35977;SDS011;22056;0.000;0.000;2023-03-31T17:20:20;3.42;;;0.95;;
35977;SDS011;22056;0.000;0.000;2023-03-31T17:22:47;3.25;;;0.85;;
35977;SDS011;22056;0.000;0.000;2023-03-31T17:25:13;2.85;;;0.80;;
35977;SDS011;22056;0.000;0.000;2023-03-31T17:27:40;3.97;;;0.63;;
35977;SDS011;22056;0.000;0.000;2023-03-31T17:30:06;2.40;;;0.70;;
35977;SDS011;22056;0.000;0.000;2023-03-31T17:32:32;4.22;;;1.23;;
35977;SDS011;22056;0.000;0.000;2023-03-31T17:34:58;3.35;;;0.80;;
35977;SDS011;22056;0.000;0.000;2023-03-31T17:37:26;5.25;;;0.70;;
35977;SDS011;22056;0.000;0.000;2023-03-31T17:39:52;3.25;;;0.85;;
35977;SDS011;22056;0.000;0.000;2023-03-31T17:42:19;3.22;;;0.73;;
35977;SDS011;22056;0.000;0.000;2023-03-31T17:44:45;3.00;;;0.85;;
35977;SDS011;22056;0.000;0.000;2023-03-31T17:47:14;2.22;;;0.60;;
35977;SDS011;22056;0.000;0.000;2023-03-31T17:49:40;2.08;;;0.68;;
35977;SDS011;22056;0.000;0.000;2023-03-31T17:52:07;3.58;;;0.45;;
35977;SDS011;22056;0.000;0.000;2023-03-31T17:54:33;2.03;;;0.68;;
35977;SDS011;22056;0.000;0.000;2023-03-31T17:56:59;3.55;;;0.73;;